createdAt,value
2023-01-22T00:00:24.787Z,17.27
2023-01-22T00:02:52.317Z,12.93
2023-01-22T00:05:19.763Z,13.48
2023-01-22T00:07:47.434Z,8.48
2023-01-22T00:10:14.831Z,9.77
2023-01-22T00:12:42.253Z,11.75
2023-01-22T00:15:09.871Z,8.10
2023-01-22T00:17:37.878Z,9.70
2023-01-22T00:20:06.710Z,8.57
2023-01-22T00:22:34.221Z,7.18
2023-01-22T00:25:03.825Z,10.57
2023-01-22T00:27:31.133Z,8.15
2023-01-22T00:29:58.922Z,8.15
2023-01-22T00:32:26.270Z,7.70
2023-01-22T00:34:54.989Z,8.77
2023-01-22T00:37:22.394Z,6.55
2023-01-22T00:39:49.722Z,8.63
2023-01-22T00:42:16.955Z,8.05
2023-01-22T00:44:44.290Z,6.55
2023-01-22T00:47:11.570Z,8.95
2023-01-22T00:49:38.860Z,7.22
2023-01-22T00:52:06.169Z,7.13
2023-01-22T00:54:33.499Z,8.07
2023-01-22T00:57:00.978Z,6.72
2023-01-22T00:59:28.222Z,7.93
2023-01-22T01:01:55.641Z,5.55
2023-01-22T01:04:22.927Z,5.82
2023-01-22T01:06:50.191Z,6.03
2023-01-22T01:09:17.501Z,7.18
2023-01-22T01:11:45.321Z,5.65
2023-01-22T01:14:12.575Z,5.85
2023-01-22T01:16:43.477Z,6.57
2023-01-22T01:19:12.079Z,7.80
2023-01-22T01:21:39.454Z,8.35
2023-01-22T01:24:06.447Z,8.38
2023-01-22T01:26:35.368Z,5.53
2023-01-22T01:29:04.835Z,8.88
2023-01-22T01:31:32.353Z,5.30
2023-01-22T01:33:59.867Z,5.43
2023-01-22T01:36:47.072Z,6.50
2023-01-22T01:41:42.138Z,5.85
2023-01-22T01:44:23.851Z,6.88
2023-01-22T01:49:38.311Z,5.90
2023-01-22T01:52:09.341Z,5.80
2023-01-22T01:54:40.354Z,7.20
2023-01-22T01:57:12.779Z,4.38
2023-01-22T01:59:40.295Z,5.50
2023-01-22T02:02:10.611Z,5.93
2023-01-22T02:04:38.088Z,7.38
2023-01-22T02:07:05.940Z,6.18
2023-01-22T02:09:35.045Z,6.57
2023-01-22T02:12:05.591Z,5.72
2023-01-22T02:14:34.913Z,6.57
2023-01-22T02:17:02.317Z,6.07
2023-01-22T02:19:29.708Z,8.00
2023-01-22T02:21:57.117Z,7.57
2023-01-22T02:24:27.389Z,6.55
2023-01-22T02:26:54.923Z,7.20
2023-01-22T02:29:27.320Z,6.90
2023-01-22T02:31:54.823Z,5.70
2023-01-22T02:34:29.558Z,8.48
2023-01-22T02:36:58.093Z,4.35
2023-01-22T02:39:25.521Z,4.63
2023-01-22T02:41:57.307Z,4.00
2023-01-22T02:44:38.325Z,4.85
2023-01-22T02:47:08.517Z,5.40
2023-01-22T02:49:42.369Z,4.20
2023-01-22T02:52:22.651Z,4.68
2023-01-22T02:54:58.342Z,4.18
2023-01-22T02:57:27.378Z,4.07
2023-01-22T03:00:02.885Z,4.18
2023-01-22T03:02:31.116Z,2.80
2023-01-22T03:05:04.987Z,3.25
2023-01-22T03:07:46.921Z,4.43
2023-01-22T03:10:21.830Z,4.55
2023-01-22T03:13:10.852Z,3.58
2023-01-22T03:16:06.604Z,4.43
2023-01-22T03:18:52.814Z,3.63
2023-01-22T03:21:29.519Z,6.53
2023-01-22T03:23:59.643Z,4.38
2023-01-22T03:29:00.443Z,3.25
2023-01-22T03:31:31.307Z,2.78
2023-01-22T03:34:04.661Z,3.67
2023-01-22T03:36:37.212Z,3.92
2023-01-22T03:39:09.922Z,3.60
2023-01-22T03:41:44.565Z,3.78
2023-01-22T03:44:17.833Z,5.15
2023-01-22T03:46:56.828Z,3.78
2023-01-22T03:49:27.415Z,3.67
2023-01-22T03:51:55.298Z,4.93
2023-01-22T03:54:39.562Z,3.25
2023-01-22T03:57:11.022Z,3.47
2023-01-22T03:59:40.815Z,3.00
2023-01-22T04:02:08.390Z,3.45
2023-01-22T04:04:47.955Z,3.13
2023-01-22T04:07:15.557Z,4.50
2023-01-22T04:09:42.982Z,3.65
2023-01-22T04:12:12.506Z,4.72
2023-01-22T04:14:40.166Z,3.85
2023-01-22T04:17:08.541Z,2.58
2023-01-22T04:20:01.608Z,3.25
2023-01-22T04:22:53.865Z,3.63
2023-01-22T04:25:21.352Z,3.05
2023-01-22T04:27:48.789Z,4.13
2023-01-22T04:30:21.754Z,3.85
2023-01-22T04:32:56.221Z,3.00
2023-01-22T04:35:30.426Z,3.25
2023-01-22T04:37:59.687Z,2.25
2023-01-22T04:40:27.097Z,3.47
2023-01-22T04:42:55.400Z,2.90
2023-01-22T04:45:24.354Z,3.40
2023-01-22T04:47:52.175Z,5.80
2023-01-22T04:50:25.329Z,3.65
2023-01-22T04:52:53.763Z,5.65
2023-01-22T04:55:21.649Z,6.63
2023-01-22T04:57:58.502Z,3.75
2023-01-22T05:00:26.643Z,3.20
2023-01-22T05:03:01.853Z,3.00
2023-01-22T05:05:30.494Z,2.33
2023-01-22T05:07:58.131Z,3.20
2023-01-22T05:10:25.495Z,3.78
2023-01-22T05:12:54.180Z,3.47
2023-01-22T05:15:24.964Z,3.58
2023-01-22T05:17:55.808Z,2.80
2023-01-22T05:20:23.079Z,3.03
2023-01-22T05:22:50.500Z,2.90
2023-01-22T05:25:22.013Z,2.67
2023-01-22T05:27:49.737Z,3.15
2023-01-22T05:30:33.192Z,6.82
2023-01-22T05:33:11.525Z,2.75
2023-01-22T05:35:42.234Z,2.78
2023-01-22T05:38:10.434Z,2.25
2023-01-22T05:40:38.848Z,3.75
2023-01-22T05:43:06.204Z,3.55
2023-01-22T05:45:33.835Z,2.50
2023-01-22T05:48:25.750Z,2.00
2023-01-22T05:50:56.878Z,1.98
2023-01-22T05:53:24.252Z,2.50
2023-01-22T05:55:51.714Z,1.58
2023-01-22T05:58:19.131Z,2.15
2023-01-22T06:00:48.174Z,2.75
2023-01-22T06:03:18.996Z,1.85
2023-01-22T06:05:58.685Z,1.92
2023-01-22T06:08:28.675Z,1.73
2023-01-22T06:11:03.723Z,1.55
2023-01-22T06:13:31.781Z,3.10
2023-01-22T06:16:08.744Z,2.42
2023-01-22T06:18:55.014Z,1.58
2023-01-22T06:23:51.511Z,2.05
2023-01-22T06:26:19.264Z,1.48
2023-01-22T06:28:47.232Z,1.30
2023-01-22T06:31:15.072Z,3.33
2023-01-22T06:33:42.696Z,2.22
2023-01-22T06:36:09.901Z,1.83
2023-01-22T06:38:37.999Z,2.47
2023-01-22T06:41:07.442Z,2.53
2023-01-22T06:43:40.473Z,1.67
2023-01-22T06:46:07.997Z,1.42
2023-01-22T06:49:01.679Z,1.25
2023-01-22T06:51:30.712Z,1.92
2023-01-22T06:54:01.313Z,1.37
2023-01-22T06:56:31.417Z,2.47
2023-01-22T06:59:06.300Z,2.13
2023-01-22T07:01:42.377Z,1.65
2023-01-22T07:04:10.901Z,1.58
2023-01-22T07:06:38.409Z,1.27
2023-01-22T07:09:05.763Z,2.13
2023-01-22T07:11:33.071Z,2.17
2023-01-22T07:14:00.364Z,1.77
2023-01-22T07:16:27.463Z,3.20
2023-01-22T07:18:57.454Z,1.38
2023-01-22T07:21:27.168Z,2.35
2023-01-22T07:23:54.740Z,2.50
2023-01-22T07:26:22.071Z,2.13
2023-01-22T07:28:49.396Z,1.67
2023-01-22T07:33:46.614Z,1.88
2023-01-22T07:36:13.893Z,1.70
2023-01-22T07:38:41.217Z,1.67
2023-01-22T07:41:24.576Z,1.77
2023-01-22T07:43:53.608Z,1.73
2023-01-22T07:46:21.013Z,1.83
2023-01-22T07:48:48.004Z,1.52
2023-01-22T07:51:19.871Z,2.20
2023-01-22T07:53:47.193Z,2.10
2023-01-22T07:56:14.485Z,2.28
2023-01-22T07:58:41.777Z,2.17
2023-01-22T08:01:11.126Z,3.40
2023-01-22T08:03:43.496Z,4.07
2023-01-22T08:06:18.049Z,4.18
2023-01-22T08:08:50.227Z,4.25
2023-01-22T08:11:24.260Z,6.03
2023-01-22T08:13:55.127Z,3.38
2023-01-22T08:16:25.666Z,3.33
2023-01-22T08:18:53.795Z,3.05
2023-01-22T08:21:24.236Z,3.53
2023-01-22T08:23:51.664Z,2.55
2023-01-22T08:26:20.803Z,4.20
2023-01-22T08:28:48.427Z,2.53
2023-01-22T08:31:31.426Z,3.38
2023-01-22T08:34:08.008Z,2.63
2023-01-22T08:36:46.370Z,2.22
2023-01-22T08:39:19.200Z,2.45
2023-01-22T08:42:23.735Z,2.85
2023-01-22T08:45:13.591Z,3.20
2023-01-22T08:48:23.495Z,5.57
2023-01-22T08:51:11.022Z,3.50
2023-01-22T08:53:38.575Z,3.25
2023-01-22T08:59:34.317Z,3.03
2023-01-22T09:04:57.147Z,2.50
2023-01-22T09:07:37.694Z,1.80
2023-01-22T09:10:27.511Z,3.65
2023-01-22T09:13:14.837Z,6.97
2023-01-22T09:16:02.565Z,5.65
2023-01-22T09:18:39.559Z,5.22
2023-01-22T09:21:20.217Z,3.60
2023-01-22T09:23:55.343Z,3.30
2023-01-22T09:26:33.087Z,2.53
2023-01-22T09:29:21.449Z,7.47
2023-01-22T09:32:00.631Z,4.15
2023-01-22T09:34:46.451Z,2.13
2023-01-22T09:37:18.236Z,2.40
2023-01-22T09:39:51.211Z,2.60
2023-01-22T09:42:29.617Z,2.13
2023-01-22T09:45:07.693Z,2.92
2023-01-22T09:47:37.629Z,2.90
2023-01-22T09:50:32.206Z,3.15
2023-01-22T09:53:16.958Z,3.65
2023-01-22T09:55:53.719Z,3.05
2023-01-22T09:58:35.663Z,4.77
2023-01-22T10:01:08.492Z,4.38
2023-01-22T10:03:38.867Z,3.30
2023-01-22T10:06:26.131Z,4.68
2023-01-22T10:09:05.246Z,8.90
2023-01-22T10:11:32.146Z,17.08
2023-01-22T10:14:01.596Z,10.77
2023-01-22T10:16:28.889Z,6.67
2023-01-22T10:19:12.314Z,4.95
2023-01-22T10:21:45.523Z,5.10
2023-01-22T10:24:12.691Z,5.65
2023-01-22T10:26:52.775Z,5.18
2023-01-22T10:29:31.620Z,7.57
2023-01-22T10:32:01.134Z,4.85
2023-01-22T10:34:36.637Z,4.00
2023-01-22T10:37:15.811Z,4.88
2023-01-22T10:39:47.561Z,4.78
2023-01-22T10:42:23.020Z,5.13
2023-01-22T10:44:50.229Z,6.15
2023-01-22T10:47:21.053Z,7.05
2023-01-22T10:49:49.455Z,9.10
2023-01-22T10:52:23.603Z,5.80
2023-01-22T10:54:57.681Z,5.75
2023-01-22T10:57:33.802Z,6.90
2023-01-22T11:00:51.501Z,4.35
2023-01-22T11:03:31.684Z,5.80
2023-01-22T11:06:17.212Z,6.80
2023-01-22T11:09:13.690Z,6.40
2023-01-22T11:11:47.228Z,6.10
2023-01-22T11:14:33.769Z,5.43
2023-01-22T11:17:20.155Z,8.20
2023-01-22T11:19:58.796Z,6.97
2023-01-22T11:22:33.990Z,5.00
2023-01-22T11:25:00.938Z,2.63
2023-01-22T11:27:45.015Z,2.58
2023-01-22T11:30:45.091Z,4.25
2023-01-22T11:33:11.945Z,4.28
2023-01-22T11:35:46.054Z,2.38
2023-01-22T11:38:30.999Z,3.63
2023-01-22T11:41:07.400Z,3.08
2023-01-22T11:43:59.081Z,2.45
2023-01-22T11:46:36.294Z,3.05
2023-01-22T11:49:03.599Z,6.07
2023-01-22T11:51:43.677Z,5.18
2023-01-22T11:54:38.075Z,3.30
2023-01-22T11:57:37.412Z,5.40
2023-01-22T12:00:28.374Z,5.45
2023-01-22T12:03:19.818Z,7.63
2023-01-22T12:06:13.089Z,6.20
2023-01-22T12:09:21.553Z,7.07
2023-01-22T12:12:08.328Z,8.57
2023-01-22T12:14:55.158Z,6.93
2023-01-22T12:17:30.977Z,7.22
2023-01-22T12:20:03.638Z,7.70
2023-01-22T12:22:55.958Z,6.60
2023-01-22T12:25:41.867Z,7.18
2023-01-22T12:28:25.916Z,6.38
2023-01-22T12:31:16.841Z,6.68
2023-01-22T12:33:44.454Z,5.63
2023-01-22T12:36:16.370Z,7.40
2023-01-22T12:38:55.199Z,9.85
2023-01-22T12:41:44.326Z,6.97
2023-01-22T12:44:26.887Z,6.57
2023-01-22T12:46:56.509Z,9.00
2023-01-22T12:49:23.419Z,9.20
2023-01-22T12:51:52.850Z,7.05
2023-01-22T12:54:35.431Z,11.37
2023-01-22T12:57:14.575Z,6.68
2023-01-22T12:59:46.730Z,7.88
2023-01-22T13:02:35.723Z,7.20
2023-01-22T13:05:30.326Z,7.60
2023-01-22T13:08:17.672Z,6.15
2023-01-22T13:11:08.904Z,8.85
2023-01-22T13:13:49.777Z,9.95
2023-01-22T13:16:31.523Z,15.13
2023-01-22T13:19:00.716Z,9.45
2023-01-22T13:21:33.805Z,10.27
2023-01-22T13:24:04.711Z,9.25
2023-01-22T13:26:35.687Z,12.32
2023-01-22T13:29:16.735Z,9.63
2023-01-22T13:31:58.717Z,8.48
2023-01-22T13:34:26.695Z,8.80
2023-01-22T13:36:55.500Z,9.77
2023-01-22T13:39:28.135Z,9.88
2023-01-22T13:41:57.314Z,8.38
2023-01-22T13:44:28.157Z,9.70
2023-01-22T13:46:55.107Z,7.25
2023-01-22T13:49:31.594Z,9.93
2023-01-22T13:52:06.681Z,6.28
2023-01-22T13:54:45.785Z,9.13
2023-01-22T13:57:15.117Z,8.35
2023-01-22T13:59:52.655Z,8.82
2023-01-22T14:02:19.902Z,11.75
2023-01-22T14:04:47.674Z,11.18
2023-01-22T14:07:33.818Z,12.63
2023-01-22T14:10:19.952Z,13.98
2023-01-22T14:12:58.145Z,16.08
2023-01-22T14:15:24.991Z,11.82
2023-01-22T14:17:51.821Z,11.60
2023-01-22T14:20:18.970Z,12.20
2023-01-22T14:22:45.948Z,11.30
2023-01-22T14:25:13.117Z,9.82
2023-01-22T14:27:48.711Z,9.57
2023-01-22T14:30:21.744Z,11.95
2023-01-22T14:32:48.923Z,10.60
2023-01-22T14:35:21.858Z,11.38
2023-01-22T14:37:49.301Z,11.90
2023-01-22T14:40:17.905Z,11.88
2023-01-22T14:42:46.781Z,12.18
2023-01-22T14:45:16.690Z,12.38
2023-01-22T14:47:44.118Z,17.60
2023-01-22T14:50:11.572Z,19.25
2023-01-22T14:52:39.095Z,14.18
2023-01-22T14:55:06.531Z,17.23
2023-01-22T14:57:33.375Z,15.48
2023-01-22T15:00:01.990Z,15.98
2023-01-22T15:02:29.124Z,14.35
2023-01-22T15:04:56.128Z,15.10
2023-01-22T15:07:22.964Z,13.65
2023-01-22T15:09:49.883Z,13.70
2023-01-22T15:12:16.922Z,15.55
2023-01-22T15:18:35.768Z,14.77
2023-01-22T15:21:06.003Z,16.58
2023-01-22T15:26:05.388Z,15.55
2023-01-22T15:28:32.772Z,18.58
2023-01-22T15:31:08.053Z,16.10
2023-01-22T15:33:38.184Z,18.20
2023-01-22T15:36:05.693Z,17.98
2023-01-22T15:38:32.556Z,14.45
2023-01-22T15:41:26.927Z,14.95
2023-01-22T15:43:56.081Z,15.38
2023-01-22T15:46:26.804Z,16.50
2023-01-22T15:48:54.231Z,15.88
2023-01-22T15:51:21.781Z,15.65
2023-01-22T15:53:53.714Z,17.00
2023-01-22T15:56:22.610Z,16.00
2023-01-22T15:58:51.143Z,16.15
2023-01-22T16:01:22.477Z,15.45
2023-01-22T16:03:49.997Z,15.95
2023-01-22T16:06:19.310Z,20.30
2023-01-22T16:08:47.047Z,14.38
2023-01-22T16:11:14.443Z,15.88
2023-01-22T16:13:42.584Z,16.77
2023-01-22T16:16:19.226Z,18.63
2023-01-22T16:18:46.917Z,16.77
2023-01-22T16:21:15.020Z,17.23
2023-01-22T16:23:43.601Z,15.40
2023-01-22T16:26:14.807Z,14.18
2023-01-22T16:28:41.765Z,16.08
2023-01-22T16:31:15.902Z,16.48
2023-01-22T16:33:45.381Z,15.52
2023-01-22T16:36:15.594Z,15.40
2023-01-22T16:41:24.351Z,15.35
2023-01-22T16:43:59.407Z,12.82
2023-01-22T16:46:29.331Z,16.35
2023-01-22T16:49:07.727Z,14.50
2023-01-22T16:52:16.618Z,11.68
2023-01-22T16:54:48.127Z,16.08
2023-01-22T16:57:19.465Z,15.68
2023-01-22T16:59:46.573Z,11.30
2023-01-22T17:02:15.373Z,14.70
2023-01-22T17:04:42.323Z,14.48
2023-01-22T17:07:20.475Z,16.52
2023-01-22T17:09:54.696Z,12.40
2023-01-22T17:12:21.583Z,12.43
2023-01-22T17:14:52.606Z,14.70
2023-01-22T17:17:19.924Z,14.18
2023-01-22T17:19:46.832Z,14.57
2023-01-22T17:22:13.793Z,12.68
2023-01-22T17:24:41.700Z,16.05
2023-01-22T17:27:08.785Z,13.65
2023-01-22T17:29:36.319Z,15.65
2023-01-22T17:32:04.096Z,14.57
2023-01-22T17:34:31.148Z,13.30
2023-01-22T17:36:58.282Z,15.15
2023-01-22T17:39:31.203Z,13.73
2023-01-22T17:41:58.233Z,15.25
2023-01-22T17:44:27.194Z,12.27
2023-01-22T17:46:59.194Z,15.35
2023-01-22T17:49:26.776Z,15.18
2023-01-22T17:51:54.304Z,17.83
2023-01-22T17:54:21.191Z,13.18
2023-01-22T17:56:51.028Z,12.07
2023-01-22T17:59:17.873Z,12.68
2023-01-22T18:01:45.252Z,14.98
2023-01-22T18:04:13.721Z,13.43
2023-01-22T18:06:42.617Z,18.88
2023-01-22T18:09:11.675Z,12.05
2023-01-22T18:11:39.492Z,16.45
2023-01-22T18:14:11.682Z,14.82
2023-01-22T18:16:40.966Z,19.30
2023-01-22T18:19:08.123Z,17.15
2023-01-22T18:21:37.355Z,22.88
2023-01-22T18:24:06.465Z,22.35
2023-01-22T18:26:34.542Z,20.90
2023-01-22T18:29:01.915Z,16.25
2023-01-22T18:31:30.014Z,23.17
2023-01-22T18:34:03.523Z,19.05
2023-01-22T18:36:33.367Z,15.65
2023-01-22T18:39:03.824Z,18.13
2023-01-22T18:41:32.114Z,19.55
2023-01-22T18:44:00.837Z,19.55
2023-01-22T18:46:30.443Z,17.67
2023-01-22T18:49:00.406Z,24.42
2023-01-22T18:51:28.391Z,28.00
2023-01-22T18:53:56.553Z,28.95
2023-01-22T18:56:25.727Z,25.20
2023-01-22T18:58:56.932Z,20.92
2023-01-22T19:01:33.482Z,25.20
2023-01-22T19:04:09.056Z,26.40
2023-01-22T19:06:39.446Z,22.65
2023-01-22T19:09:14.375Z,22.40
2023-01-22T19:11:47.826Z,34.45
2023-01-22T19:14:17.866Z,20.92
2023-01-22T19:16:50.856Z,14.70
2023-01-22T19:19:19.977Z,16.27
2023-01-22T19:21:52.873Z,17.35
2023-01-22T19:24:26.800Z,14.45
2023-01-22T19:26:55.095Z,13.70
2023-01-22T19:29:24.052Z,12.85
2023-01-22T19:31:52.288Z,14.05
2023-01-22T19:34:24.969Z,15.13
2023-01-22T19:36:56.588Z,16.83
2023-01-22T19:39:27.622Z,18.85
2023-01-22T19:41:55.002Z,15.90
2023-01-22T19:44:22.234Z,15.30
2023-01-22T19:46:49.205Z,17.83
2023-01-22T19:49:16.218Z,15.90
2023-01-22T19:51:43.609Z,19.15
2023-01-22T19:54:10.550Z,19.77
2023-01-22T19:56:39.907Z,18.38
2023-01-22T19:59:15.593Z,17.27
2023-01-22T20:01:45.654Z,17.98
2023-01-22T20:04:22.637Z,16.25
2023-01-22T20:06:51.920Z,15.05
2023-01-22T20:09:21.865Z,16.05
2023-01-22T20:11:50.683Z,17.25
2023-01-22T20:14:17.526Z,21.73
2023-01-22T20:16:45.717Z,16.27
2023-01-22T20:19:13.296Z,15.98
2023-01-22T20:21:40.460Z,15.80
2023-01-22T20:24:07.955Z,16.55
2023-01-22T20:26:35.284Z,19.25
2023-01-22T20:29:02.672Z,16.90
2023-01-22T20:31:29.634Z,17.60
2023-01-22T20:33:57.215Z,16.10
2023-01-22T20:36:30.436Z,15.25
2023-01-22T20:38:57.784Z,11.98
2023-01-22T20:41:27.546Z,13.43
2023-01-22T20:43:55.043Z,10.30
2023-01-22T20:46:24.394Z,10.25
2023-01-22T20:48:52.032Z,11.45
2023-01-22T20:51:21.600Z,10.63
2023-01-22T20:53:50.988Z,11.23
2023-01-22T20:56:22.637Z,8.30
2023-01-22T20:58:55.690Z,8.25
2023-01-22T21:01:24.942Z,9.20
2023-01-22T21:03:52.239Z,11.93
2023-01-22T21:06:20.398Z,10.02
2023-01-22T21:08:52.635Z,10.80
2023-01-22T21:11:20.971Z,10.88
2023-01-22T21:13:50.028Z,15.60
2023-01-22T21:16:21.063Z,13.75
2023-01-22T21:18:47.942Z,15.15
2023-01-22T21:21:18.011Z,13.75
2023-01-22T21:23:47.708Z,13.75
2023-01-22T21:26:22.787Z,12.35
2023-01-22T21:29:17.334Z,12.52
2023-01-22T21:31:45.427Z,12.75
2023-01-22T21:34:12.386Z,14.68
2023-01-22T21:36:47.355Z,13.35
2023-01-22T21:39:16.607Z,13.60
2023-01-22T21:41:43.974Z,12.00
2023-01-22T21:44:31.423Z,11.30
2023-01-22T21:46:58.522Z,12.07
2023-01-22T21:49:25.608Z,10.85
2023-01-22T21:52:02.106Z,10.32
2023-01-22T21:54:34.598Z,8.80
2023-01-22T21:57:01.863Z,11.50
2023-01-22T21:59:28.985Z,9.48
2023-01-22T22:01:56.837Z,11.02
2023-01-22T22:04:26.030Z,9.13
2023-01-22T22:06:53.731Z,10.85
2023-01-22T22:09:23.616Z,11.25
2023-01-22T22:11:51.171Z,13.35
2023-01-22T22:14:21.960Z,11.40
2023-01-22T22:16:49.248Z,10.00
2023-01-22T22:19:17.370Z,11.80
2023-01-22T22:21:44.876Z,10.95
2023-01-22T22:24:11.801Z,9.85
2023-01-22T22:26:39.184Z,11.85
2023-01-22T22:29:07.553Z,12.85
2023-01-22T22:31:34.531Z,12.27
2023-01-22T22:34:01.615Z,10.18
2023-01-22T22:36:30.066Z,11.18
2023-01-22T22:38:57.085Z,10.60
2023-01-22T22:41:27.872Z,11.30
2023-01-22T22:43:56.020Z,14.35
2023-01-22T22:46:24.455Z,10.45
2023-01-22T22:48:52.933Z,13.30
2023-01-22T22:51:22.873Z,11.55
2023-01-22T22:53:53.426Z,11.40
2023-01-22T22:56:20.795Z,14.52
2023-01-22T22:58:47.826Z,10.77
2023-01-22T23:01:18.127Z,10.68
2023-01-22T23:06:17.937Z,12.32
2023-01-22T23:08:48.259Z,8.73
2023-01-22T23:13:49.144Z,10.77
2023-01-22T23:16:19.018Z,11.70
2023-01-22T23:18:47.966Z,10.93
2023-01-22T23:21:21.214Z,9.63
2023-01-22T23:23:48.243Z,16.38
2023-01-22T23:26:18.099Z,8.68
2023-01-22T23:28:45.519Z,11.75
2023-01-22T23:31:14.760Z,16.00
2023-01-22T23:33:41.920Z,12.15
2023-01-22T23:36:11.894Z,11.65
2023-01-22T23:38:39.328Z,11.63
2023-01-22T23:41:08.195Z,11.73
2023-01-22T23:43:35.277Z,11.05
2023-01-22T23:46:06.742Z,13.18
2023-01-22T23:48:33.642Z,11.55
2023-01-22T23:51:01.252Z,11.80
2023-01-22T23:53:28.361Z,12.50
2023-01-22T23:56:02.789Z,11.60
2023-01-22T23:58:29.794Z,14.05
